createdAt,value
2023-05-09T00:00:49.142Z,61.86
2023-05-09T00:03:17.163Z,63.32
2023-05-09T00:05:46.200Z,61.76
2023-05-09T00:08:14.130Z,57.54
2023-05-09T00:10:42.017Z,57.06
2023-05-09T00:13:09.841Z,58.23
2023-05-09T00:15:37.819Z,59.34
2023-05-09T00:18:06.016Z,60.11
2023-05-09T00:20:34.197Z,60.84
2023-05-09T00:23:02.050Z,61.47
2023-05-09T00:25:30.015Z,62.23
2023-05-09T00:27:57.953Z,63.47
2023-05-09T00:30:26.047Z,61.46
2023-05-09T00:32:54.030Z,57.15
2023-05-09T00:35:21.977Z,56.87
2023-05-09T00:37:49.854Z,58.27
2023-05-09T00:40:17.644Z,59.49
2023-05-09T00:42:45.618Z,60.47
2023-05-09T00:45:13.647Z,60.99
2023-05-09T00:47:41.641Z,61.75
2023-05-09T00:50:10.521Z,62.26
2023-05-09T00:52:38.810Z,63.65
2023-05-09T00:55:08.374Z,61.36
2023-05-09T00:57:36.717Z,57.49
2023-05-09T01:00:05.548Z,57.36
2023-05-09T01:02:33.614Z,58.77
2023-05-09T01:05:01.972Z,60.05
2023-05-09T01:07:38.278Z,61.07
2023-05-09T01:10:16.906Z,61.82
2023-05-09T01:12:54.780Z,63.01
2023-05-09T01:15:47.157Z,61.22
2023-05-09T01:18:19.433Z,57.11
2023-05-09T01:20:58.678Z,57.58
2023-05-09T01:23:36.275Z,58.92
2023-05-09T01:26:49.952Z,60.06
2023-05-09T01:29:26.825Z,61.35
2023-05-09T01:31:56.652Z,61.34
2023-05-09T01:34:27.208Z,63.13
2023-05-09T01:36:59.794Z,61.88
2023-05-09T01:39:28.821Z,58.00
2023-05-09T01:41:58.329Z,57.65
2023-05-09T01:44:26.869Z,58.93
2023-05-09T01:46:57.589Z,60.20
2023-05-09T01:49:26.368Z,61.02
2023-05-09T01:51:54.192Z,61.69
2023-05-09T01:54:22.732Z,63.14
2023-05-09T01:56:51.240Z,62.29
2023-05-09T01:59:19.396Z,58.85
2023-05-09T02:01:48.164Z,56.89
2023-05-09T02:04:16.516Z,58.37
2023-05-09T02:06:44.739Z,59.83
2023-05-09T02:09:13.125Z,61.12
2023-05-09T02:11:40.971Z,61.66
2023-05-09T02:14:08.972Z,63.57
2023-05-09T02:16:39.519Z,62.01
2023-05-09T02:19:07.365Z,58.03
2023-05-09T02:21:35.797Z,57.55
2023-05-09T02:24:03.925Z,59.25
2023-05-09T02:26:31.908Z,60.43
2023-05-09T02:29:01.186Z,61.11
2023-05-09T02:31:29.755Z,61.86
2023-05-09T02:33:57.795Z,63.76
2023-05-09T02:36:25.653Z,62.64
2023-05-09T02:38:53.727Z,58.93
2023-05-09T02:41:22.137Z,56.75
2023-05-09T02:43:49.932Z,58.30
2023-05-09T02:46:17.927Z,60.03
2023-05-09T02:48:45.910Z,61.40
2023-05-09T02:51:13.738Z,62.52
2023-05-09T02:53:41.591Z,63.55
2023-05-09T02:56:10.899Z,60.69
2023-05-09T02:58:38.672Z,57.12
2023-05-09T03:01:06.490Z,57.71
2023-05-09T03:03:34.728Z,59.18
2023-05-09T03:06:02.622Z,60.72
2023-05-09T03:08:31.156Z,61.76
2023-05-09T03:10:58.984Z,63.25
2023-05-09T03:13:26.905Z,61.87
2023-05-09T03:15:54.854Z,58.85
2023-05-09T03:18:22.839Z,58.63
2023-05-09T03:20:51.356Z,59.92
2023-05-09T03:23:19.114Z,61.35
2023-05-09T03:25:46.885Z,63.34
2023-05-09T03:28:14.754Z,61.83
2023-05-09T03:30:42.620Z,58.22
2023-05-09T03:33:10.683Z,58.15
2023-05-09T03:35:38.496Z,59.69
2023-05-09T03:38:06.265Z,60.73
2023-05-09T03:40:34.118Z,61.46
2023-05-09T03:43:01.876Z,63.52
2023-05-09T03:45:29.608Z,62.51
2023-05-09T03:47:57.438Z,59.41
2023-05-09T03:50:25.550Z,56.65
2023-05-09T03:52:55.193Z,58.00
2023-05-09T03:55:23.836Z,59.74
2023-05-09T03:57:52.027Z,61.24
2023-05-09T04:00:21.813Z,62.52
2023-05-09T04:02:50.391Z,63.17
2023-05-09T04:05:18.728Z,59.76
2023-05-09T04:07:46.612Z,56.43
2023-05-09T04:10:14.395Z,57.01
2023-05-09T04:12:42.230Z,58.17
2023-05-09T04:15:11.143Z,59.01
2023-05-09T04:17:39.248Z,59.62
2023-05-09T04:20:08.336Z,59.75
2023-05-09T04:22:36.341Z,60.00
2023-05-09T04:25:04.794Z,59.79
2023-05-09T04:27:32.620Z,59.67
2023-05-09T04:30:00.485Z,59.84
2023-05-09T04:32:28.313Z,59.87
2023-05-09T04:34:56.165Z,59.58
2023-05-09T04:37:23.999Z,59.34
2023-05-09T04:39:51.961Z,59.24
2023-05-09T04:42:19.832Z,59.05
2023-05-09T04:44:49.405Z,58.81
2023-05-09T04:47:17.312Z,58.69
2023-05-09T04:49:45.176Z,58.49
2023-05-09T04:52:12.939Z,58.40
2023-05-09T04:54:41.092Z,58.25
2023-05-09T04:57:17.273Z,58.18
2023-05-09T04:59:46.135Z,58.07
2023-05-09T05:02:13.947Z,58.05
2023-05-09T05:04:41.948Z,57.55
2023-05-09T05:07:09.838Z,57.62
2023-05-09T05:09:37.658Z,57.53
2023-05-09T05:12:08.372Z,57.44
2023-05-09T05:14:37.326Z,57.61
2023-05-09T05:17:05.248Z,57.42
2023-05-09T05:19:33.162Z,57.85
2023-05-09T05:22:00.874Z,58.02
2023-05-09T05:24:28.588Z,57.98
2023-05-09T05:26:56.365Z,57.65
2023-05-09T05:29:24.402Z,57.44
2023-05-09T05:31:52.423Z,57.43
2023-05-09T05:34:20.520Z,57.34
2023-05-09T05:36:48.245Z,57.12
2023-05-09T05:39:16.198Z,57.14
2023-05-09T05:41:44.001Z,56.46
2023-05-09T05:44:11.832Z,56.10
2023-05-09T05:46:39.606Z,56.03
2023-05-09T05:49:07.473Z,55.36
2023-05-09T05:51:35.385Z,55.34
2023-05-09T05:54:03.437Z,55.13
2023-05-09T05:56:31.212Z,54.88
2023-05-09T05:58:59.071Z,53.15
2023-05-09T06:01:26.936Z,52.93
2023-05-09T06:03:56.076Z,53.46
2023-05-09T06:06:24.378Z,52.72
2023-05-09T06:08:52.303Z,51.64
2023-05-09T06:11:20.112Z,50.72
2023-05-09T06:13:48.161Z,50.37
2023-05-09T06:16:19.922Z,49.13
2023-05-09T06:18:48.710Z,47.69
2023-05-09T06:21:16.662Z,46.59
2023-05-09T06:24:01.414Z,45.29
2023-05-09T06:26:32.408Z,44.14
2023-05-09T06:29:00.259Z,43.18
2023-05-09T06:31:28.136Z,41.34
2023-05-09T06:33:55.946Z,39.97
2023-05-09T06:36:23.692Z,39.98
2023-05-09T06:38:51.524Z,39.27
2023-05-09T06:41:19.323Z,39.17
2023-05-09T06:43:47.855Z,38.61
2023-05-09T06:46:15.899Z,38.18
2023-05-09T06:48:43.795Z,37.80
2023-05-09T06:51:11.680Z,37.67
2023-05-09T06:53:39.429Z,38.41
2023-05-09T06:56:07.303Z,38.11
2023-05-09T06:58:35.265Z,38.63
2023-05-09T07:01:04.513Z,38.42
2023-05-09T07:03:32.384Z,37.20
2023-05-09T07:06:00.216Z,37.40
2023-05-09T07:08:28.027Z,36.85
2023-05-09T07:10:55.942Z,36.88
2023-05-09T07:13:23.869Z,36.03
2023-05-09T07:15:51.830Z,35.96
2023-05-09T07:18:19.752Z,35.95
2023-05-09T07:20:47.902Z,35.90
2023-05-09T07:23:15.938Z,35.66
2023-05-09T07:25:45.246Z,36.54
2023-05-09T07:28:15.067Z,36.58
2023-05-09T07:30:43.747Z,36.55
2023-05-09T07:33:11.624Z,36.89
2023-05-09T07:35:42.253Z,37.06
2023-05-09T07:38:11.085Z,35.95
2023-05-09T07:40:38.965Z,35.86
2023-05-09T07:43:06.843Z,35.44
2023-05-09T07:45:34.975Z,34.99
2023-05-09T07:48:02.881Z,34.45
2023-05-09T07:50:30.802Z,34.91
2023-05-09T07:52:59.719Z,34.15
2023-05-09T07:55:27.649Z,34.57
2023-05-09T07:57:55.565Z,34.30
2023-05-09T08:00:24.127Z,33.98
2023-05-09T08:02:52.570Z,33.99
2023-05-09T08:05:20.622Z,32.46
2023-05-09T08:07:48.506Z,31.45
2023-05-09T08:12:19.164Z,31.40
2023-05-09T08:14:46.332Z,31.24
2023-05-09T08:17:12.924Z,30.82
2023-05-09T08:19:39.380Z,31.28
2023-05-09T08:22:05.971Z,31.03
2023-05-09T08:24:32.577Z,31.45
2023-05-09T08:26:59.503Z,31.60
2023-05-09T08:29:26.340Z,31.00
2023-05-09T08:31:53.180Z,31.03
2023-05-09T08:34:20.700Z,30.88
2023-05-09T08:36:47.694Z,30.84
2023-05-09T08:39:14.322Z,30.42
2023-05-09T08:41:41.771Z,30.70
2023-05-09T08:44:08.730Z,31.33
2023-05-09T08:46:39.160Z,31.29
2023-05-09T08:49:08.463Z,30.98
2023-05-09T08:51:35.984Z,30.15
2023-05-09T08:54:03.093Z,29.96
2023-05-09T08:56:31.499Z,30.16
2023-05-09T08:58:58.366Z,30.97
2023-05-09T09:01:26.252Z,30.29
2023-05-09T09:03:53.805Z,29.42
2023-05-09T09:06:21.919Z,29.39
2023-05-09T09:08:48.696Z,28.93
2023-05-09T09:11:15.812Z,29.18
2023-05-09T09:13:43.598Z,29.81
2023-05-09T09:16:14.436Z,29.55
2023-05-09T09:18:41.068Z,29.55
2023-05-09T09:21:10.106Z,30.22
2023-05-09T09:23:40.143Z,30.51
2023-05-09T09:26:06.814Z,30.17
2023-05-09T09:28:34.309Z,30.29
2023-05-09T09:31:01.297Z,29.99
2023-05-09T09:33:29.185Z,30.02
2023-05-09T09:35:56.455Z,30.31
2023-05-09T09:38:24.216Z,30.13
2023-05-09T09:40:55.496Z,29.99
2023-05-09T09:43:30.204Z,30.10
2023-05-09T09:46:01.044Z,29.46
2023-05-09T09:48:35.195Z,29.19
2023-05-09T09:51:09.418Z,28.67
2023-05-09T09:53:43.109Z,29.18
2023-05-09T09:56:10.088Z,29.09
2023-05-09T09:58:36.612Z,28.31
2023-05-09T10:01:08.649Z,27.89
2023-05-09T10:03:44.636Z,28.03
2023-05-09T10:06:13.958Z,28.06
2023-05-09T10:08:42.391Z,28.62
2023-05-09T10:11:09.850Z,28.77
2023-05-09T10:13:38.230Z,28.27
2023-05-09T10:16:08.374Z,27.97
2023-05-09T10:18:35.833Z,28.61
2023-05-09T10:21:04.590Z,28.08
2023-05-09T10:23:32.717Z,27.95
2023-05-09T10:26:22.226Z,27.89
2023-05-09T10:28:49.442Z,27.09
2023-05-09T10:31:23.117Z,27.63
2023-05-09T10:33:50.883Z,27.68
2023-05-09T10:36:20.220Z,27.42
2023-05-09T10:38:48.453Z,27.31
2023-05-09T10:41:18.096Z,27.31
2023-05-09T10:43:45.592Z,27.87
2023-05-09T10:46:12.995Z,28.08
2023-05-09T10:48:40.569Z,28.09
2023-05-09T10:51:07.753Z,28.14
2023-05-09T10:53:55.612Z,27.96
2023-05-09T10:56:42.793Z,27.52
2023-05-09T10:59:33.694Z,27.94
2023-05-09T11:02:02.277Z,27.34
2023-05-09T11:04:31.647Z,27.21
2023-05-09T11:07:01.271Z,27.32
2023-05-09T11:09:37.449Z,27.43
2023-05-09T11:12:09.788Z,27.69
2023-05-09T11:14:55.443Z,27.81
2023-05-09T11:17:24.733Z,27.72
2023-05-09T11:19:51.204Z,27.26
2023-05-09T11:22:31.692Z,27.35
2023-05-09T11:25:07.577Z,27.73
2023-05-09T11:27:49.968Z,27.81
2023-05-09T11:30:19.300Z,28.18
2023-05-09T11:32:53.086Z,28.28
2023-05-09T11:36:29.714Z,28.18
2023-05-09T11:39:08.689Z,28.34
2023-05-09T11:41:56.683Z,28.57
2023-05-09T11:44:23.774Z,29.28
2023-05-09T11:46:50.287Z,29.08
2023-05-09T11:49:18.860Z,28.44
2023-05-09T11:51:45.322Z,28.92
2023-05-09T11:54:14.288Z,28.51
2023-05-09T11:56:41.495Z,28.94
2023-05-09T11:59:09.883Z,28.51
2023-05-09T12:01:36.847Z,28.67
2023-05-09T12:04:06.847Z,28.54
2023-05-09T12:06:33.730Z,28.85
2023-05-09T12:09:00.215Z,28.90
2023-05-09T12:11:31.605Z,28.92
2023-05-09T12:13:58.300Z,28.53
2023-05-09T12:16:24.793Z,28.03
2023-05-09T12:18:52.712Z,28.00
2023-05-09T12:21:22.134Z,28.33
2023-05-09T12:23:51.273Z,28.39
2023-05-09T12:26:22.031Z,28.29
2023-05-09T12:28:49.518Z,28.29
2023-05-09T12:31:16.734Z,28.71
2023-05-09T12:33:43.319Z,28.88
2023-05-09T12:36:12.401Z,28.66
2023-05-09T12:38:39.300Z,28.41
2023-05-09T12:41:15.439Z,28.75
2023-05-09T12:43:48.425Z,28.27
2023-05-09T12:46:22.177Z,27.89
2023-05-09T12:48:49.335Z,27.81
2023-05-09T12:51:21.220Z,27.57
2023-05-09T12:53:48.000Z,27.67
2023-05-09T12:56:23.649Z,27.57
2023-05-09T12:58:52.829Z,27.70
2023-05-09T13:01:21.756Z,27.91
2023-05-09T13:04:00.256Z,28.12
2023-05-09T13:06:27.127Z,28.51
2023-05-09T13:09:01.839Z,28.65
2023-05-09T13:11:29.018Z,28.78
2023-05-09T13:13:55.744Z,29.05
2023-05-09T13:16:22.622Z,29.31
2023-05-09T13:18:49.338Z,28.55
2023-05-09T13:21:15.878Z,28.41
2023-05-09T13:23:43.888Z,28.27
2023-05-09T13:26:10.519Z,28.24
2023-05-09T13:28:37.066Z,28.42
2023-05-09T13:31:03.686Z,28.45
2023-05-09T13:33:30.455Z,28.45
2023-05-09T13:35:57.052Z,28.55
2023-05-09T13:38:23.735Z,28.57
2023-05-09T13:40:50.948Z,28.86
2023-05-09T13:43:17.535Z,29.11
2023-05-09T13:45:44.040Z,29.39
2023-05-09T13:48:11.350Z,29.71
2023-05-09T13:50:37.947Z,29.77
2023-05-09T13:53:04.504Z,29.72
2023-05-09T13:55:31.069Z,29.69
2023-05-09T13:57:57.696Z,29.90
2023-05-09T14:00:25.903Z,30.56
2023-05-09T14:02:52.398Z,30.57
2023-05-09T14:05:19.280Z,30.33
2023-05-09T14:07:45.829Z,30.22
2023-05-09T14:10:12.591Z,30.48
2023-05-09T14:12:39.877Z,29.97
2023-05-09T14:15:07.829Z,29.79
2023-05-09T14:17:34.588Z,29.91
2023-05-09T14:20:01.224Z,30.01
2023-05-09T14:22:27.781Z,30.18
2023-05-09T14:24:56.673Z,30.21
2023-05-09T14:39:20.452Z,30.81
2023-05-09T14:41:49.485Z,31.03
2023-05-09T14:44:16.939Z,30.62
2023-05-09T14:46:44.202Z,30.64
2023-05-09T14:49:10.887Z,30.58
2023-05-09T14:51:37.409Z,30.39
2023-05-09T14:54:04.700Z,30.33
2023-05-09T14:56:31.400Z,29.87
2023-05-09T14:58:57.937Z,29.87
2023-05-09T15:01:24.743Z,29.76
2023-05-09T15:03:51.447Z,30.02
2023-05-09T15:06:18.217Z,30.34
2023-05-09T15:08:44.826Z,30.46
2023-05-09T15:11:11.477Z,30.28
2023-05-09T15:13:38.136Z,29.91
2023-05-09T15:16:04.936Z,30.01
2023-05-09T15:18:33.190Z,30.02
2023-05-09T15:21:00.510Z,29.68
2023-05-09T15:23:27.457Z,29.70
2023-05-09T15:25:54.049Z,29.93
2023-05-09T15:28:20.484Z,29.77
2023-05-09T15:30:47.996Z,29.93
2023-05-09T15:33:14.565Z,29.74
2023-05-09T15:35:41.801Z,30.05
2023-05-09T15:38:11.449Z,30.00
2023-05-09T15:40:40.463Z,30.23
2023-05-09T15:43:08.466Z,30.64
2023-05-09T15:45:37.303Z,30.60
2023-05-09T15:48:04.338Z,30.47
2023-05-09T15:50:31.019Z,30.71
2023-05-09T15:52:57.661Z,30.38
2023-05-09T15:55:24.554Z,30.54
2023-05-09T15:57:52.084Z,30.56
2023-05-09T16:00:19.006Z,30.55
2023-05-09T16:02:45.585Z,30.45
2023-05-09T16:05:12.443Z,30.74
2023-05-09T16:07:43.583Z,31.02
2023-05-09T16:10:10.240Z,30.81
2023-05-09T16:12:36.904Z,30.76
2023-05-09T16:15:04.711Z,30.67
2023-05-09T16:17:31.352Z,30.81
2023-05-09T16:19:58.352Z,30.77
2023-05-09T16:22:25.582Z,30.72
2023-05-09T16:24:52.398Z,30.89
2023-05-09T16:27:20.009Z,31.00
2023-05-09T16:29:46.533Z,31.04
2023-05-09T16:32:13.089Z,31.09
2023-05-09T16:34:39.810Z,31.19
2023-05-09T16:37:06.399Z,31.42
2023-05-09T16:39:32.939Z,31.27
2023-05-09T16:41:59.919Z,31.38
2023-05-09T16:44:26.846Z,31.13
2023-05-09T16:46:56.813Z,31.37
2023-05-09T16:49:23.508Z,31.50
2023-05-09T16:51:50.183Z,31.59
2023-05-09T16:54:16.816Z,31.43
2023-05-09T16:56:43.499Z,31.42
2023-05-09T16:59:10.152Z,31.21
2023-05-09T17:01:37.236Z,31.21
2023-05-09T17:04:06.129Z,31.45
2023-05-09T17:06:33.689Z,31.54
2023-05-09T17:09:03.590Z,31.70
2023-05-09T17:11:38.969Z,31.82
2023-05-09T17:14:06.070Z,31.99
2023-05-09T17:16:33.468Z,32.21
2023-05-09T17:19:01.739Z,32.38
2023-05-09T17:21:28.900Z,32.39
2023-05-09T17:23:56.457Z,32.33
2023-05-09T17:26:36.562Z,32.12
2023-05-09T17:29:06.440Z,32.29
2023-05-09T17:31:33.294Z,32.50
2023-05-09T17:34:19.820Z,32.79
2023-05-09T17:36:48.227Z,33.09
2023-05-09T17:39:17.792Z,33.36
2023-05-09T17:41:45.829Z,33.58
2023-05-09T17:44:18.410Z,33.59
2023-05-09T17:46:48.491Z,33.71
2023-05-09T17:49:17.305Z,33.74
2023-05-09T17:51:45.358Z,33.90
2023-05-09T17:54:13.447Z,34.19
2023-05-09T17:56:42.268Z,34.20
2023-05-09T17:59:10.628Z,34.42
2023-05-09T18:01:38.837Z,34.69
2023-05-09T18:04:07.966Z,34.84
2023-05-09T18:06:36.731Z,34.95
2023-05-09T18:09:06.133Z,35.27
2023-05-09T18:11:35.262Z,35.47
2023-05-09T18:14:03.729Z,35.57
2023-05-09T18:16:34.066Z,35.66
2023-05-09T18:19:02.208Z,35.89
2023-05-09T18:21:32.263Z,36.20
2023-05-09T18:24:01.418Z,36.36
2023-05-09T18:26:29.698Z,36.56
2023-05-09T18:28:58.275Z,36.51
2023-05-09T18:31:26.541Z,36.79
2023-05-09T18:33:54.711Z,37.09
2023-05-09T18:36:22.944Z,37.26
2023-05-09T18:38:52.902Z,37.64
2023-05-09T18:41:22.354Z,37.90
2023-05-09T18:43:50.561Z,38.03
2023-05-09T18:46:21.447Z,38.07
2023-05-09T18:48:53.901Z,38.30
2023-05-09T18:51:21.883Z,38.38
2023-05-09T18:53:49.722Z,38.49
2023-05-09T18:56:20.523Z,38.85
2023-05-09T18:58:52.463Z,38.87
2023-05-09T19:01:20.671Z,38.80
2023-05-09T19:03:54.092Z,38.86
2023-05-09T19:06:22.399Z,39.00
2023-05-09T19:08:50.310Z,39.22
2023-05-09T19:11:18.470Z,38.97
2023-05-09T19:13:49.321Z,39.22
2023-05-09T19:16:19.869Z,39.19
2023-05-09T19:18:48.949Z,39.25
2023-05-09T19:21:18.999Z,39.31
2023-05-09T19:23:59.487Z,39.46
2023-05-09T19:26:34.143Z,39.44
2023-05-09T19:29:11.160Z,39.64
2023-05-09T19:31:39.463Z,39.85
2023-05-09T19:34:07.706Z,39.89
2023-05-09T19:36:36.130Z,40.03
2023-05-09T19:39:11.465Z,40.09
2023-05-09T19:41:43.284Z,40.12
2023-05-09T19:44:12.266Z,40.35
2023-05-09T19:46:43.086Z,40.36
2023-05-09T19:49:11.860Z,40.43
2023-05-09T19:51:39.901Z,40.50
2023-05-09T19:54:09.634Z,40.76
2023-05-09T19:56:37.583Z,40.71
2023-05-09T19:59:23.912Z,40.76
2023-05-09T20:01:51.911Z,40.73
2023-05-09T20:04:21.962Z,40.93
2023-05-09T20:06:50.743Z,41.09
2023-05-09T20:09:21.101Z,41.22
2023-05-09T20:11:50.749Z,41.26
2023-05-09T20:14:19.235Z,41.30
2023-05-09T20:16:47.176Z,41.61
2023-05-09T20:19:15.735Z,41.69
2023-05-09T20:21:43.685Z,41.75
2023-05-09T20:24:11.952Z,41.84
2023-05-09T20:26:39.840Z,41.89
2023-05-09T20:29:08.072Z,42.06
2023-05-09T20:31:36.115Z,42.11
2023-05-09T20:34:04.164Z,42.15
2023-05-09T20:36:32.608Z,42.40
2023-05-09T20:39:00.510Z,42.51
2023-05-09T20:41:28.491Z,42.50
2023-05-09T20:44:03.405Z,42.61
2023-05-09T20:46:31.340Z,42.67
2023-05-09T20:48:59.146Z,42.70
2023-05-09T20:51:27.022Z,43.00
2023-05-09T20:53:54.790Z,43.02
2023-05-09T20:56:22.643Z,43.14
2023-05-09T20:58:50.672Z,43.13
2023-05-09T21:01:18.685Z,43.30
2023-05-09T21:03:46.737Z,43.22
2023-05-09T21:06:14.664Z,43.40
2023-05-09T21:08:43.371Z,43.46
2023-05-09T21:11:11.408Z,43.48
2023-05-09T21:13:39.289Z,43.62
2023-05-09T21:16:07.201Z,43.66
2023-05-09T21:18:35.179Z,43.77
2023-05-09T21:21:07.346Z,43.73
2023-05-09T21:23:35.458Z,44.03
2023-05-09T21:26:03.360Z,44.05
2023-05-09T21:28:31.510Z,44.02
2023-05-09T21:31:01.755Z,44.07
2023-05-09T21:33:30.032Z,44.22
2023-05-09T21:35:59.186Z,44.18
2023-05-09T21:38:27.015Z,44.35
2023-05-09T21:40:55.361Z,44.26
2023-05-09T21:43:23.356Z,44.39
2023-05-09T21:45:51.222Z,44.37
2023-05-09T21:48:19.083Z,44.53
2023-05-09T21:50:47.164Z,44.54
2023-05-09T21:53:14.993Z,44.53
2023-05-09T21:55:42.774Z,44.48
2023-05-09T21:58:10.606Z,44.43
2023-05-09T22:00:38.501Z,44.80
2023-05-09T22:03:06.513Z,44.92
2023-05-09T22:05:34.418Z,44.85
2023-05-09T22:08:02.253Z,44.96
2023-05-09T22:10:30.116Z,45.02
2023-05-09T22:12:58.351Z,45.11
2023-05-09T22:15:27.128Z,45.18
2023-05-09T22:17:54.939Z,45.24
2023-05-09T22:20:22.901Z,45.22
2023-05-09T22:22:50.848Z,45.17
2023-05-09T22:25:18.728Z,45.35
2023-05-09T22:27:46.584Z,45.34
2023-05-09T22:30:14.725Z,45.44
2023-05-09T22:32:43.279Z,45.46
2023-05-09T22:35:11.273Z,45.51
2023-05-09T22:37:39.032Z,45.71
2023-05-09T22:40:07.751Z,45.71
2023-05-09T22:42:35.902Z,45.69
2023-05-09T22:45:04.059Z,45.79
2023-05-09T22:47:31.992Z,45.75
2023-05-09T22:49:59.851Z,45.80
2023-05-09T22:52:27.725Z,45.86
2023-05-09T22:54:55.583Z,46.01
2023-05-09T22:57:23.925Z,46.05
2023-05-09T22:59:53.245Z,46.06
2023-05-09T23:02:21.740Z,46.09
2023-05-09T23:04:49.661Z,46.25
2023-05-09T23:07:17.613Z,46.33
2023-05-09T23:09:45.437Z,46.35
2023-05-09T23:12:13.293Z,46.61
2023-05-09T23:14:41.207Z,46.64
2023-05-09T23:17:09.032Z,46.63
2023-05-09T23:19:37.350Z,46.74
2023-05-09T23:22:05.280Z,47.02
2023-05-09T23:24:33.075Z,46.84
2023-05-09T23:27:02.541Z,46.86
2023-05-09T23:29:30.576Z,46.95
2023-05-09T23:31:58.532Z,46.98
2023-05-09T23:34:26.324Z,47.09
2023-05-09T23:36:54.151Z,47.20
2023-05-09T23:39:22.251Z,47.23
2023-05-09T23:41:50.155Z,47.34
2023-05-09T23:44:18.150Z,47.28
2023-05-09T23:46:46.074Z,47.25
2023-05-09T23:49:14.661Z,47.54
2023-05-09T23:52:00.669Z,47.56
2023-05-09T23:54:28.705Z,47.77
2023-05-09T23:56:57.395Z,47.69
2023-05-09T23:59:25.326Z,47.73
